Aérodrome :
LOGIN :

S'inscrire | Disclaimer

   EN    FR    IT 

 










Légende :    VFR   VFR Marginal   IFR   IFR Intensif   IFR Très Intensif
Visi : 
Plafond : 
>= 8 km
>= 3000ft
5 à 8 km
1000 à 3000 ft
1500m à 5 km
500 à 1000 ft
800 à 1500m
200 à 500 ft
< 800m
< 200 ft
Symboles :   Orages  Brouillard  Fortes neiges  Fortes précipitations  Vent > 20 kt
SIGMETs :   Divers  Orages  Givrage  Turbulence  Onde Orograph.  Cendres Volcan.






- Altitude de l'aérodrome : 297 ft
- Code IATA : UIP


LFRQ - Quimper Pluguffan

DERNIER METAR :
  • 161700Z AUTO 34009KT 9999 -DZ BKN008 BKN012 BKN019 09/08 Q1022 BECMG BKN018

METARs EXPIRÉS :
  • 161630Z AUTO 34008KT 310V020 9999 SCT008 SCT017 OVC030 09/09 Q1022 NOSIG
  • 161600Z AUTO 34008KT 9999 BKN007 BKN011 BKN016 09/09 Q1022 TEMPO 4000 SHRA BKN015TCU
  • 161530Z AUTO 35006KT 320V020 6000 BKN006 OVC012 10/10 Q1021 TEMPO 4000 SHRA BKN015TCU
  • 161500Z AUTO 32009KT 5000 BR BKN005 OVC010 10/10 Q1022 TEMPO SHRA BKN015TCU
  • 161430Z AUTO 30010KT 9000 BKN006 BKN010 OVC014 11/11 Q1021 TEMPO 4000 SHRA BKN015TCU

TAF TAF LFRQ
Valide du 16 à 12h jusqu'au 17 à 12h UTC


161100Z 1612/1712 22010KT 9999 BKN018
TEMPO 1612/1615 4000 -RADZ OVC006
TEMPO 1612/1614 2000 DZRA OVC002
BECMG 1612/1615 33010KT 9999 BKN018
TEMPO 1614/1617 4000 SHRA BKN015TCU
BECMG 1621/1624 VRB03KT
PROB30
TEMPO 1700/1706 0400 FG VV///



MET'MAP, la Météo Aéronautique d'un coup d'oeil ! - Copyright ORBIFLY Décembre 2007 - Disclaimer

ORBIFLY MET'MAP TEAM :

Programmation & Développement : Alexandra Zaïnal
Sur une idée originale de : Baudouin d'Aumeries
Assistance à la programmation : Marc-Olivier Méhu
Soutien technique & logistique : Manuel Goepfert

Contact : metmap@orbifly.com




SOURCES & CREDITS :

   NOAA